createdAt,value
2022-09-07T00:04:14.146Z,100258
2022-09-07T00:10:15.505Z,100247
2022-09-07T00:16:36.972Z,100285
2022-09-07T00:22:36.500Z,100247
2022-09-07T00:34:28.789Z,100193
2022-09-07T00:40:27.865Z,100194
2022-09-07T00:58:27.621Z,100166
2022-09-07T01:11:09.261Z,100144
2022-09-07T01:17:07.686Z,100136
2022-09-07T01:23:04.951Z,100152
2022-09-07T01:28:58.402Z,100131
2022-09-07T01:34:57.818Z,100136
2022-09-07T01:41:09.422Z,100129
2022-09-07T01:47:16.371Z,100128
2022-09-07T01:53:37.249Z,100127
2022-09-07T01:59:38.711Z,100127
2022-09-07T02:06:08.501Z,100138
2022-09-07T02:12:28.346Z,100132
2022-09-07T02:25:00.792Z,100116
2022-09-07T02:31:21.416Z,100107
2022-09-07T02:37:26.103Z,100099
2022-09-07T02:43:27.241Z,100094
2022-09-07T02:55:40.795Z,100071
2022-09-07T03:01:52.277Z,100060
2022-09-07T03:07:58.696Z,100056
2022-09-07T03:14:18.044Z,100052
2022-09-07T03:20:09.896Z,100043
2022-09-07T03:26:07.592Z,100036
2022-09-07T03:32:06.325Z,100032
2022-09-07T03:37:58.135Z,100039
2022-09-07T03:43:59.668Z,100043
2022-09-07T03:49:58.390Z,100046
2022-09-07T03:56:16.107Z,100047
2022-09-07T04:02:14.269Z,100054
2022-09-07T04:08:22.639Z,100067
2022-09-07T04:14:29.017Z,100059
2022-09-07T04:20:26.278Z,100057
2022-09-07T04:26:17.439Z,100048
2022-09-07T04:32:11.408Z,100055
2022-09-07T04:38:11.566Z,100041
2022-09-07T04:44:19.299Z,100048
2022-09-07T04:50:15.996Z,100053
2022-09-07T04:56:20.310Z,100052
2022-09-07T05:02:17.426Z,100062
2022-09-07T05:08:17.983Z,100058
2022-09-07T05:14:11.324Z,100058
2022-09-07T05:20:02.304Z,100063
2022-09-07T05:25:51.804Z,100059
2022-09-07T05:31:40.490Z,100063
2022-09-07T05:37:30.000Z,100065
2022-09-07T05:43:20.113Z,100069
2022-09-07T05:49:10.002Z,100080
2022-09-07T05:55:32.849Z,100091
2022-09-07T06:01:20.376Z,100090
2022-09-07T06:07:26.217Z,100092
2022-09-07T06:13:15.076Z,100102
2022-09-07T06:19:06.792Z,100108
2022-09-07T06:24:57.496Z,100104
2022-09-07T06:30:48.602Z,100098
2022-09-07T06:36:39.929Z,100100
2022-09-07T06:42:33.292Z,100104
2022-09-07T06:48:24.982Z,100110
2022-09-07T06:55:03.042Z,100101
2022-09-07T07:00:51.694Z,100104
2022-09-07T07:06:43.553Z,100116
2022-09-07T07:18:24.442Z,100116
2022-09-07T07:24:16.750Z,100130
2022-09-07T07:30:08.284Z,100128
2022-09-07T07:35:59.241Z,100125
2022-09-07T07:42:06.034Z,100130
2022-09-07T07:47:56.549Z,100133
2022-09-07T07:53:47.508Z,100139
2022-09-07T07:59:39.136Z,100139
2022-09-07T08:05:30.071Z,100144
2022-09-07T08:11:24.226Z,100150
2022-09-07T08:17:17.107Z,100154
2022-09-07T08:23:08.535Z,100156
2022-09-07T08:29:00.636Z,100164
2022-09-07T08:34:55.813Z,100173
2022-09-07T08:40:50.807Z,100181
2022-09-07T08:46:46.620Z,100177
2022-09-07T08:52:42.789Z,100178
2022-09-07T08:59:04.563Z,100192
2022-09-07T09:05:23.789Z,100187
2022-09-07T09:11:14.489Z,100187
2022-09-07T09:17:06.198Z,100176
2022-09-07T09:23:02.858Z,100176
2022-09-07T09:28:53.899Z,100173
2022-09-07T09:34:44.974Z,100172
2022-09-07T09:40:36.042Z,100175
2022-09-07T09:46:29.073Z,100171
2022-09-07T09:52:47.854Z,100174
2022-09-07T10:00:02.937Z,100167
2022-09-07T10:06:08.714Z,100159
2022-09-07T10:12:15.136Z,100168
2022-09-07T10:18:05.155Z,100157
2022-09-07T10:23:57.121Z,100158
2022-09-07T10:29:48.066Z,100157
2022-09-07T10:35:41.307Z,100157
2022-09-07T10:41:33.459Z,100146
2022-09-07T10:47:29.130Z,100143
2022-09-07T10:53:44.628Z,100129
2022-09-07T11:00:15.093Z,100132
2022-09-07T11:06:06.436Z,100137
2022-09-07T11:14:17.119Z,100113
2022-09-07T11:20:05.559Z,100125
2022-09-07T11:25:57.531Z,100121
2022-09-07T11:31:49.476Z,100120
2022-09-07T11:37:40.369Z,100126
2022-09-07T11:43:34.397Z,100117
2022-09-07T11:49:24.573Z,100100
2022-09-07T11:55:39.093Z,100112
2022-09-07T12:01:45.034Z,100118
2022-09-07T12:20:03.688Z,100099
2022-09-07T12:26:11.165Z,100096
2022-09-07T12:38:57.155Z,100093
2022-09-07T12:45:01.842Z,100091
2022-09-07T12:51:06.217Z,100073
2022-09-07T13:03:58.358Z,100078
2022-09-07T13:09:46.563Z,100080
2022-09-07T13:21:40.879Z,100062
2022-09-07T13:27:30.399Z,100066
2022-09-07T13:33:31.952Z,100059
2022-09-07T13:39:33.150Z,100057
2022-09-07T13:45:39.708Z,100047
2022-09-07T13:51:32.489Z,100034
2022-09-07T13:57:35.326Z,100045
2022-09-07T14:03:27.199Z,100040
2022-09-07T14:09:20.639Z,100031
2022-09-07T14:15:23.361Z,100038
2022-09-07T14:21:17.151Z,100039
2022-09-07T14:27:07.595Z,100036
2022-09-07T14:33:00.786Z,100031
2022-09-07T14:39:23.278Z,100029
2022-09-07T14:45:12.903Z,100014
2022-09-07T14:51:38.509Z,100014
2022-09-07T14:57:26.807Z,100007
2022-09-07T15:03:16.456Z,100002
2022-09-07T15:09:08.730Z,99999
2022-09-07T15:14:59.525Z,99996
2022-09-07T15:20:49.250Z,99992
2022-09-07T15:27:10.453Z,99987
2022-09-07T15:33:00.516Z,99998
2022-09-07T15:39:06.813Z,99985
2022-09-07T15:44:57.865Z,99973
2022-09-07T15:50:49.999Z,99980
2022-09-07T15:58:10.906Z,99983
2022-09-07T16:04:00.318Z,99979
2022-09-07T16:09:57.629Z,99974
2022-09-07T16:15:51.765Z,99975
2022-09-07T16:21:44.219Z,99970
2022-09-07T16:27:36.890Z,99962
2022-09-07T16:33:38.747Z,99973
2022-09-07T16:39:33.958Z,99963
2022-09-07T17:02:54.556Z,99957
2022-09-07T17:08:42.111Z,99951
2022-09-07T17:14:32.058Z,99951
2022-09-07T17:20:24.169Z,99950
2022-09-07T17:26:15.575Z,99948
2022-09-07T17:32:37.484Z,99939
2022-09-07T17:39:26.005Z,99936
2022-09-07T17:45:15.824Z,99925
2022-09-07T17:51:06.585Z,99922
2022-09-07T17:56:57.645Z,99922
2022-09-07T18:02:49.432Z,99936
2022-09-07T18:08:40.343Z,99931
2022-09-07T18:14:31.135Z,99938
2022-09-07T18:20:22.466Z,99933
2022-09-07T18:26:13.497Z,99935
2022-09-07T18:32:07.973Z,99946
2022-09-07T18:38:00.308Z,99939
2022-09-07T18:43:53.673Z,99938
2022-09-07T18:49:46.019Z,99940
2022-09-07T18:55:36.998Z,99941
2022-09-07T19:01:32.471Z,99943
2022-09-07T19:07:27.462Z,99933
2022-09-07T19:13:20.237Z,99929
2022-09-07T19:19:10.419Z,99935
2022-09-07T19:25:01.640Z,99929
2022-09-07T19:30:51.777Z,99922
2022-09-07T19:36:42.252Z,99915
2022-09-07T19:42:32.198Z,99911
2022-09-07T19:48:22.527Z,99907
2022-09-07T19:54:12.995Z,99899
2022-09-07T20:00:03.946Z,99883
2022-09-07T20:05:55.015Z,99876
2022-09-07T20:11:49.666Z,99878
2022-09-07T20:17:39.114Z,99878
2022-09-07T20:23:29.120Z,99871
2022-09-07T20:29:31.156Z,99871
2022-09-07T20:35:20.142Z,99862
2022-09-07T20:41:10.325Z,99850
2022-09-07T20:47:02.362Z,99842
2022-09-07T20:52:52.907Z,99852
2022-09-07T20:58:44.170Z,99850
2022-09-07T21:04:35.561Z,99829
2022-09-07T21:10:27.420Z,99824
2022-09-07T21:16:18.203Z,99833
2022-09-07T21:22:09.161Z,99835
2022-09-07T21:28:00.333Z,99854
2022-09-07T21:33:51.286Z,99858
2022-09-07T21:39:42.501Z,99869
2022-09-07T21:45:33.528Z,99877
2022-09-07T21:51:25.710Z,99876
2022-09-07T21:57:16.779Z,99889
2022-09-07T22:03:08.181Z,99876
2022-09-07T22:08:59.271Z,99872
2022-09-07T22:14:49.700Z,99866
2022-09-07T22:20:40.107Z,99870
2022-09-07T22:26:31.291Z,99858
2022-09-07T22:32:22.507Z,99850
2022-09-07T22:38:13.388Z,99844
2022-09-07T22:44:04.263Z,99841
2022-09-07T22:49:57.625Z,99823
2022-09-07T22:55:50.655Z,99821
2022-09-07T23:01:45.944Z,99804
2022-09-07T23:07:41.905Z,99798
2022-09-07T23:13:51.673Z,99788
